地図

経路データ

SID SEASON NUMBER BASIN SUBBASIN NAME ISO_TIME NATURE LAT LON WMO_WIND WMO_PRES WMO_AGENCY TRACK_TYPE DIST2LAND LANDFALL IFLAG USA_AGENCY USA_ATCF_ID USA_LAT USA_LON USA_RECORD USA_STATUS USA_WIND USA_PRES USA_SSHS USA_R34_NE USA_R34_SE USA_R34_SW USA_R34_NW USA_R50_NE USA_R50_SE USA_R50_SW USA_R50_NW USA_R64_NE USA_R64_SE USA_R64_SW USA_R64_NW USA_POCI USA_ROCI USA_RMW USA_EYE TOKYO_LAT TOKYO_LON TOKYO_GRADE TOKYO_WIND TOKYO_PRES TOKYO_R50_DIR TOKYO_R50_LONG TOKYO_R50_SHORT TOKYO_R30_DIR TOKYO_R30_LONG TOKYO_R30_SHORT TOKYO_LAND CMA_LAT CMA_LON CMA_CAT CMA_WIND CMA_PRES HKO_LAT HKO_LON HKO_CAT HKO_WIND HKO_PRES NEWDELHI_LAT NEWDELHI_LON NEWDELHI_GRADE NEWDELHI_WIND NEWDELHI_PRES NEWDELHI_CI NEWDELHI_DP NEWDELHI_POCI REUNION_LAT REUNION_LON REUNION_TYPE REUNION_WIND REUNION_PRES REUNION_TNUM REUNION_CI REUNION_RMW REUNION_R34_NE REUNION_R34_SE REUNION_R34_SW REUNION_R34_NW REUNION_R50_NE REUNION_R50_SE REUNION_R50_SW REUNION_R50_NW REUNION_R64_NE REUNION_R64_SE REUNION_R64_SW REUNION_R64_NW BOM_LAT BOM_LON BOM_TYPE BOM_WIND BOM_PRES BOM_TNUM BOM_CI BOM_RMW BOM_R34_NE BOM_R34_SE BOM_R34_SW BOM_R34_NW BOM_R50_NE BOM_R50_SE BOM_R50_SW BOM_R50_NW BOM_R64_NE BOM_R64_SE BOM_R64_SW BOM_R64_NW BOM_ROCI BOM_POCI BOM_EYE BOM_POS_METHOD BOM_PRES_METHOD NADI_LAT NADI_LON NADI_CAT NADI_WIND NADI_PRES WELLINGTON_LAT WELLINGTON_LON WELLINGTON_WIND WELLINGTON_PRES DS824_LAT DS824_LON DS824_STAGE DS824_WIND DS824_PRES TD9636_LAT TD9636_LON TD9636_STAGE TD9636_WIND TD9636_PRES TD9635_LAT TD9635_LON TD9635_WIND TD9635_PRES TD9635_ROCI NEUMANN_LAT NEUMANN_LON NEUMANN_CLASS NEUMANN_WIND NEUMANN_PRES MLC_LAT MLC_LON MLC_CLASS MLC_WIND MLC_PRES USA_GUST BOM_GUST BOM_GUST_PER REUNION_GUST REUNION_GUST_PER USA_SEAHGT USA_SEARAD_NE USA_SEARAD_SE USA_SEARAD_SW USA_SEARAD_NW STORM_SPEED STORM_DIR
1927304N20280 1927 62 NA CS NOT_NAMED 1927-10-30 12:00:00 TS 19.5000 -80.0000 30 hurdat_atl main 217 213 O_____________ hurdat_atl AL071927 19.5000 -80.0000 TD 30 -1 5 9
1927304N20280 1927 62 NA CS NOT_NAMED 1927-10-30 15:00:00 TS 19.7500 -79.9625 main 213 182 P_____________ AL071927 19.7500 -79.9625 TD 32 -1 5 11
1927304N20280 1927 62 NA CS NOT_NAMED 1927-10-30 18:00:00 TS 20.0000 -79.9000 35 hurdat_atl main 182 158 O_____________ hurdat_atl AL071927 20.0000 -79.9000 TS 35 0 5 17
1927304N20280 1927 62 NA CS NOT_NAMED 1927-10-30 21:00:00 TS 20.2500 -79.8000 main 147 123 P_____________ AL071927 20.2500 -79.8000 TS 35 0 5 20
1927304N20280 1927 62 NA CS NOT_NAMED 1927-10-31 00:00:00 TS 20.5000 -79.7000 35 hurdat_atl main 123 98 O_____________ hurdat_atl AL071927 20.5000 -79.7000 TS 35 0 5 17
1927304N20280 1927 62 NA CS NOT_NAMED 1927-10-31 03:00:00 TS 20.7500 -79.6424 main 98 67 P_____________ AL071927 20.7500 -79.6424 TS 37 0 5 11
1927304N20280 1927 62 NA CS NOT_NAMED 1927-10-31 06:00:00 TS 21.0000 -79.6000 40 hurdat_atl main 67 45 O_____________ hurdat_atl AL071927 21.0000 -79.6000 TS 40 0 5 10
1927304N20280 1927 62 NA CS NOT_NAMED 1927-10-31 09:00:00 TS 21.2500 -79.5500 main 33 11 P_____________ AL071927 21.2500 -79.5500 TS 40 0 5 11
1927304N20280 1927 62 NA CS NOT_NAMED 1927-10-31 12:00:00 TS 21.5000 -79.5000 40 hurdat_atl main 11 0 O_____________ hurdat_atl AL071927 21.5000 -79.5000 TS 40 0 5 11
1927304N20280 1927 62 NA NA NOT_NAMED 1927-10-31 15:00:00 TS 21.7500 -79.4500 main 0 0 P_____________ AL071927 21.7500 -79.4500 TS 40 0 5 11
1927304N20280 1927 62 NA NA NOT_NAMED 1927-10-31 18:00:00 TS 22.0000 -79.4000 40 hurdat_atl main 0 0 O_____________ hurdat_atl AL071927 22.0000 -79.4000 TS 40 0 5 10
1927304N20280 1927 62 NA NA NOT_NAMED 1927-10-31 21:00:00 TS 22.2500 -79.3500 main 0 0 P_____________ AL071927 22.2500 -79.3500 TS 37 0 5 10
1927304N20280 1927 62 NA NA NOT_NAMED 1927-11-01 00:00:00 TS 22.5000 -79.3000 35 hurdat_atl main 15 15 O_____________ hurdat_atl AL071927 22.5000 -79.3000 TS 35 0 5 10
1927304N20280 1927 62 NA NA NOT_NAMED 1927-11-01 03:00:00 TS 22.7425 -79.2574 main 23 23 P_____________ AL071927 22.7425 -79.2574 TS 35 0 5 10
1927304N20280 1927 62 NA NA NOT_NAMED 1927-11-01 06:00:00 TS 23.0000 -79.2000 35 hurdat_atl main 52 52 O_____________ hurdat_atl AL071927 23.0000 -79.2000 TS 35 0 5 12
1927304N20280 1927 62 NA NA NOT_NAMED 1927-11-01 09:00:00 TS 23.2549 -79.1445 main 84 84 P_____________ AL071927 23.2549 -79.1445 TS 35 0 6 17
1927304N20280 1927 62 NA NA NOT_NAMED 1927-11-01 12:00:00 TS 23.6000 -79.0000 35 hurdat_atl main 117 59 O_____________ hurdat_atl AL071927 23.6000 -79.0000 TS 35 0 9 25
1927304N20280 1927 62 NA NA NOT_NAMED 1927-11-01 15:00:00 TS 24.0898 -78.7245 main 59 0 P_____________ AL071927 24.0898 -78.7245 TS 35 0 13 30
1927304N20280 1927 62 NA NA NOT_NAMED 1927-11-01 18:00:00 TS 24.7000 -78.3000 35 hurdat_atl main 0 0 O_____________ hurdat_atl AL071927 24.7000 -78.3000 TS 35 0 16 34
1927304N20280 1927 62 NA NA NOT_NAMED 1927-11-01 21:00:00 TS 25.3773 -77.7671 main 39 39 P_____________ AL071927 25.3773 -77.7671 TS 35 0 18 38
1927304N20280 1927 62 NA NA NOT_NAMED 1927-11-02 00:00:00 TS 26.1000 -77.1000 35 hurdat_atl main 143 143 O_____________ hurdat_atl AL071927 26.1000 -77.1000 TS 35 0 19 43
1927304N20280 1927 62 NA NA NOT_NAMED 1927-11-02 03:00:00 TS 26.7932 -76.2853 main 254 254 P_____________ AL071927 26.7932 -76.2853 TS 35 0 20 46
1927304N20280 1927 62 NA NA NOT_NAMED 1927-11-02 06:00:00 TS 27.5000 -75.5000 35 hurdat_atl main 365 365 O_____________ hurdat_atl AL071927 27.5000 -75.5000 TS 35 0 19 41
1927304N20280 1927 62 NA NA NOT_NAMED 1927-11-02 09:00:00 TS 28.2422 -74.8802 main 463 463 P_____________ AL071927 28.2422 -74.8802 TS 35 0 17 30
1927304N20280 1927 62 NA NA NOT_NAMED 1927-11-02 12:00:00 TS 29.0000 -74.5000 35 hurdat_atl main 556 556 O_____________ hurdat_atl AL071927 29.0000 -74.5000 TS 35 0 16 17
1927304N20280 1927 62 NA NA NOT_NAMED 1927-11-02 15:00:00 TS 29.7868 -74.3497 main 575 501 P_____________ AL071927 29.7868 -74.3497 TS 35 0 15 0
1927304N20280 1927 62 NA NA NOT_NAMED 1927-11-02 18:00:00 TS 30.5000 -74.5000 35 hurdat_atl main 501 426 O_____________ hurdat_atl AL071927 30.5000 -74.5000 TS 35 0 14 338
1927304N20280 1927 62 NA NA NOT_NAMED 1927-11-02 21:00:00 TS 31.0908 -74.9683 main 419 355 P_____________ AL071927 31.0908 -74.9683 TS 35 0 13 319
1927304N20280 1927 62 NA NA NOT_NAMED 1927-11-03 00:00:00 TS 31.5000 -75.5000 35 hurdat_atl main 355 319 O_____________ hurdat_atl AL071927 31.5000 -75.5000 TS 35 0 9 312
1927304N20280 1927 62 NA NA NOT_NAMED 1927-11-03 03:00:00 TS 31.7097 -75.7683 main 319 305 P_____________ AL071927 31.7097 -75.7683 TS 35 0 5 311
1927304N20280 1927 62 NA NA NOT_NAMED 1927-11-03 06:00:00 TS 31.8000 -75.9000 35 hurdat_atl main 305 290 O_____________ hurdat_atl AL071927 31.8000 -75.9000 TS 35 0 3 318
1927304N20280 1927 62 NA NA NOT_NAMED 1927-11-03 09:00:00 TS 31.9149 -75.9801 main 290 282 P_____________ AL071927 31.9149 -75.9801 TS 35 0 2 335
1927304N20280 1927 62 NA NA NOT_NAMED 1927-11-03 12:00:00 TS 32.0000 -76.0000 35 hurdat_atl main 282 270 O_____________ hurdat_atl AL071927 32.0000 -76.0000 TS 35 0 2 285
1927304N20280 1927 62 NA NA NOT_NAMED 1927-11-03 15:00:00 TS 31.9791 -76.2515 main 264 261 P_____________ AL071927 31.9791 -76.2515 TS 32 -1 1 0
1927304N20280 1927 62 NA NA NOT_NAMED 1927-11-03 18:00:00 TS 32.1000 -76.0000 30 hurdat_atl main 273 273 O_____________ hurdat_atl AL071927 32.1000 -76.0000 TD 30 -1 17 73
1927304N20280 1927 62 NA NA NOT_NAMED 1927-11-03 21:00:00 TS 32.4659 -74.3560 main 312 312 P_____________ AL071927 32.4659 -74.3560 TD 30 -1 30 68
1927304N20280 1927 62 NA NA NOT_NAMED 1927-11-04 00:00:00 ET 33.2000 -72.7000 30 hurdat_atl main 381 335 O_____________ hurdat_atl AL071927 33.2000 -72.7000 EX 30 -4 26 42
1927304N20280 1927 62 NA NA NOT_NAMED 1927-11-04 03:00:00 ET 34.4086 -72.2768 main 329 251 P_____________ AL071927 34.4086 -72.2768 EX 30 -4 27 0
1927304N20280 1927 62 NA NA NOT_NAMED 1927-11-04 06:00:00 ET 35.9000 -72.7000 30 hurdat_atl main 252 O_____________ hurdat_atl AL071927 35.9000 -72.7000 EX 30 -4 31 347

IBTrACS Databaseについて

本データベースは、米国NOAAが公開する1842年以降の世界の熱帯低気圧のベストトラックデータアーカイブInternational Best Track Archive for Climate Stewardship (IBTrACS)を、ウェブで閲覧しやすい形式に変換したものです。

最終更新日:2021-12-06